sensor_id;sensor_type;location;lat;lon;timestamp;temperature;humidity
72865;DHT22;61000;48.120;11.548;2022-11-15T00:00:38;5.10;99.90
72865;DHT22;61000;48.120;11.548;2022-11-15T00:03:25;5.10;99.90
72865;DHT22;61000;48.120;11.548;2022-11-15T00:06:11;5.10;99.90
72865;DHT22;61000;48.120;11.548;2022-11-15T00:08:58;5.00;99.90
72865;DHT22;61000;48.120;11.548;2022-11-15T00:11:45;4.90;99.90
72865;DHT22;61000;48.120;11.548;2022-11-15T00:14:30;5.00;99.90
72865;DHT22;61000;48.120;11.548;2022-11-15T00:17:15;5.00;99.90
72865;DHT22;61000;48.120;11.548;2022-11-15T00:20:01;5.00;99.90
72865;DHT22;61000;48.120;11.548;2022-11-15T00:22:46;4.90;99.90
72865;DHT22;61000;48.120;11.548;2022-11-15T00:25:32;4.90;99.90
72865;DHT22;61000;48.120;11.548;2022-11-15T00:28:19;4.90;99.90
72865;DHT22;61000;48.120;11.548;2022-11-15T00:31:07;4.90;99.90
72865;DHT22;61000;48.120;11.548;2022-11-15T00:33:52;4.90;99.90
72865;DHT22;61000;48.120;11.548;2022-11-15T00:36:38;4.90;99.90
72865;DHT22;61000;48.120;11.548;2022-11-15T00:39:23;4.90;99.90
72865;DHT22;61000;48.120;11.548;2022-11-15T00:42:09;4.90;99.90
72865;DHT22;61000;48.120;11.548;2022-11-15T00:44:56;4.90;99.90
72865;DHT22;61000;48.120;11.548;2022-11-15T00:47:44;4.80;99.90
72865;DHT22;61000;48.120;11.548;2022-11-15T00:50:29;4.80;99.90
72865;DHT22;61000;48.120;11.548;2022-11-15T00:53:15;4.80;99.90
72865;DHT22;61000;48.120;11.548;2022-11-15T00:56:01;4.80;99.90
72865;DHT22;61000;48.120;11.548;2022-11-15T00:58:46;4.80;99.90
72865;DHT22;61000;48.120;11.548;2022-11-15T01:01:33;4.70;99.90
72865;DHT22;61000;48.120;11.548;2022-11-15T01:04:19;4.70;99.90
72865;DHT22;61000;48.120;11.548;2022-11-15T01:07:04;4.70;99.90
72865;DHT22;61000;48.120;11.548;2022-11-15T01:09:50;4.70;99.90
72865;DHT22;61000;48.120;11.548;2022-11-15T01:15:21;4.60;99.90
72865;DHT22;61000;48.120;11.548;2022-11-15T01:18:08;4.60;99.90
72865;DHT22;61000;48.120;11.548;2022-11-15T01:20:53;4.50;99.90
72865;DHT22;61000;48.120;11.548;2022-11-15T01:23:39;4.60;99.90
72865;DHT22;61000;48.120;11.548;2022-11-15T01:26:25;4.60;99.90
72865;DHT22;61000;48.120;11.548;2022-11-15T01:29:10;4.50;99.90
72865;DHT22;61000;48.120;11.548;2022-11-15T01:31:56;4.50;99.90
72865;DHT22;61000;48.120;11.548;2022-11-15T01:48:50;4.30;99.90
72865;DHT22;61000;48.120;11.548;2022-11-15T01:51:38;4.30;99.90
72865;DHT22;61000;48.120;11.548;2022-11-15T01:54:24;4.40;99.90
72865;DHT22;61000;48.120;11.548;2022-11-15T01:57:11;4.40;99.90
72865;DHT22;61000;48.120;11.548;2022-11-15T01:59:57;4.30;99.90
72865;DHT22;61000;48.120;11.548;2022-11-15T02:02:44;4.30;99.90
72865;DHT22;61000;48.120;11.548;2022-11-15T02:05:30;4.20;99.90
72865;DHT22;61000;48.120;11.548;2022-11-15T02:08:18;4.30;99.90
72865;DHT22;61000;48.120;11.548;2022-11-15T02:11:07;4.30;99.90
72865;DHT22;61000;48.120;11.548;2022-11-15T02:13:52;4.30;99.90
72865;DHT22;61000;48.120;11.548;2022-11-15T02:16:43;4.40;99.90
72865;DHT22;61000;48.120;11.548;2022-11-15T02:19:47;4.30;99.90
72865;DHT22;61000;48.120;11.548;2022-11-15T02:22:46;4.30;99.90
72865;DHT22;61000;48.120;11.548;2022-11-15T02:25:42;4.20;99.90
72865;DHT22;61000;48.120;11.548;2022-11-15T04:46:35;3.60;99.90
72865;DHT22;61000;48.120;11.548;2022-11-15T04:49:21;3.60;99.90
72865;DHT22;61000;48.120;11.548;2022-11-15T04:52:06;3.60;99.90
72865;DHT22;61000;48.120;11.548;2022-11-15T04:54:52;3.60;99.90
72865;DHT22;61000;48.120;11.548;2022-11-15T04:57:37;3.50;99.90
72865;DHT22;61000;48.120;11.548;2022-11-15T05:00:23;3.60;99.90
72865;DHT22;61000;48.120;11.548;2022-11-15T05:03:10;3.50;99.90
72865;DHT22;61000;48.120;11.548;2022-11-15T05:06:13;3.50;99.90
72865;DHT22;61000;48.120;11.548;2022-11-15T05:08:59;3.60;99.90
72865;DHT22;61000;48.120;11.548;2022-11-15T05:11:44;3.50;99.90
72865;DHT22;61000;48.120;11.548;2022-11-15T05:14:30;3.60;99.90
72865;DHT22;61000;48.120;11.548;2022-11-15T05:17:15;3.50;99.90
72865;DHT22;61000;48.120;11.548;2022-11-15T05:20:02;3.50;99.90
72865;DHT22;61000;48.120;11.548;2022-11-15T05:22:48;3.50;99.90
72865;DHT22;61000;48.120;11.548;2022-11-15T05:25:35;3.50;99.90
72865;DHT22;61000;48.120;11.548;2022-11-15T05:28:20;3.40;99.90
72865;DHT22;61000;48.120;11.548;2022-11-15T05:31:07;3.40;99.90
72865;DHT22;61000;48.120;11.548;2022-11-15T05:33:54;3.40;99.90
72865;DHT22;61000;48.120;11.548;2022-11-15T05:36:43;3.40;99.90
72865;DHT22;61000;48.120;11.548;2022-11-15T05:39:29;3.40;99.90
72865;DHT22;61000;48.120;11.548;2022-11-15T05:42:15;3.40;99.90
72865;DHT22;61000;48.120;11.548;2022-11-15T05:45:02;3.40;99.90
72865;DHT22;61000;48.120;11.548;2022-11-15T05:47:50;3.40;99.90
72865;DHT22;61000;48.120;11.548;2022-11-15T05:50:39;3.40;99.90
72865;DHT22;61000;48.120;11.548;2022-11-15T05:53:27;3.40;99.90
72865;DHT22;61000;48.120;11.548;2022-11-15T05:56:13;3.40;99.90
72865;DHT22;61000;48.120;11.548;2022-11-15T05:58:59;3.40;99.90
72865;DHT22;61000;48.120;11.548;2022-11-15T06:01:45;3.40;99.90
72865;DHT22;61000;48.120;11.548;2022-11-15T06:04:30;3.50;99.90
72865;DHT22;61000;48.120;11.548;2022-11-15T06:07:15;3.50;99.90
72865;DHT22;61000;48.120;11.548;2022-11-15T06:10:03;3.50;99.90
72865;DHT22;61000;48.120;11.548;2022-11-15T06:12:56;3.50;99.90
72865;DHT22;61000;48.120;11.548;2022-11-15T06:15:41;3.50;99.90
72865;DHT22;61000;48.120;11.548;2022-11-15T06:18:27;3.50;99.90
72865;DHT22;61000;48.120;11.548;2022-11-15T06:21:12;3.40;99.90
72865;DHT22;61000;48.120;11.548;2022-11-15T06:23:58;3.40;99.90
72865;DHT22;61000;48.120;11.548;2022-11-15T06:26:45;3.40;99.90
72865;DHT22;61000;48.120;11.548;2022-11-15T06:29:30;3.40;99.90
72865;DHT22;61000;48.120;11.548;2022-11-15T06:32:16;3.40;99.90
72865;DHT22;61000;48.120;11.548;2022-11-15T06:35:02;3.40;99.90
72865;DHT22;61000;48.120;11.548;2022-11-15T06:37:47;3.30;99.90
72865;DHT22;61000;48.120;11.548;2022-11-15T06:40:34;3.40;99.90
72865;DHT22;61000;48.120;11.548;2022-11-15T06:43:21;3.50;99.90
72865;DHT22;61000;48.120;11.548;2022-11-15T06:46:07;3.50;99.90
72865;DHT22;61000;48.120;11.548;2022-11-15T06:48:53;3.50;99.90
72865;DHT22;61000;48.120;11.548;2022-11-15T06:51:38;3.40;99.90
72865;DHT22;61000;48.120;11.548;2022-11-15T06:54:24;3.40;99.90
72865;DHT22;61000;48.120;11.548;2022-11-15T06:57:09;3.40;99.90
72865;DHT22;61000;48.120;11.548;2022-11-15T06:59:56;3.40;99.90
72865;DHT22;61000;48.120;11.548;2022-11-15T07:02:42;3.60;99.90
72865;DHT22;61000;48.120;11.548;2022-11-15T07:05:28;3.50;99.90
72865;DHT22;61000;48.120;11.548;2022-11-15T07:08:13;3.70;99.90
72865;DHT22;61000;48.120;11.548;2022-11-15T07:10:59;3.50;99.90
72865;DHT22;61000;48.120;11.548;2022-11-15T07:13:45;3.50;99.90
72865;DHT22;61000;48.120;11.548;2022-11-15T07:16:32;3.60;99.90
72865;DHT22;61000;48.120;11.548;2022-11-15T07:19:17;3.70;99.90
72865;DHT22;61000;48.120;11.548;2022-11-15T07:22:03;3.70;99.90
72865;DHT22;61000;48.120;11.548;2022-11-15T07:24:49;3.70;99.90
72865;DHT22;61000;48.120;11.548;2022-11-15T07:27:34;3.80;99.90
72865;DHT22;61000;48.120;11.548;2022-11-15T07:30:20;3.90;99.90
72865;DHT22;61000;48.120;11.548;2022-11-15T07:33:08;4.00;99.90
72865;DHT22;61000;48.120;11.548;2022-11-15T07:35:53;3.90;99.90
72865;DHT22;61000;48.120;11.548;2022-11-15T07:38:39;3.90;99.90
72865;DHT22;61000;48.120;11.548;2022-11-15T07:41:24;3.90;99.90
72865;DHT22;61000;48.120;11.548;2022-11-15T07:44:10;4.00;99.90
72865;DHT22;61000;48.120;11.548;2022-11-15T07:46:55;4.10;99.90
72865;DHT22;61000;48.120;11.548;2022-11-15T07:49:43;4.20;99.90
72865;DHT22;61000;48.120;11.548;2022-11-15T07:52:29;4.40;99.90
72865;DHT22;61000;48.120;11.548;2022-11-15T07:55:15;4.50;99.90
72865;DHT22;61000;48.120;11.548;2022-11-15T07:58:01;4.60;99.90
72865;DHT22;61000;48.120;11.548;2022-11-15T08:00:47;4.70;99.90
72865;DHT22;61000;48.120;11.548;2022-11-15T08:03:33;4.80;99.90
72865;DHT22;61000;48.120;11.548;2022-11-15T08:06:20;4.80;99.90
72865;DHT22;61000;48.120;11.548;2022-11-15T08:09:05;5.00;99.90
72865;DHT22;61000;48.120;11.548;2022-11-15T08:11:51;5.10;99.90
72865;DHT22;61000;48.120;11.548;2022-11-15T08:14:36;5.20;99.90
72865;DHT22;61000;48.120;11.548;2022-11-15T08:17:22;5.20;99.90
72865;DHT22;61000;48.120;11.548;2022-11-15T08:20:09;5.30;99.90
72865;DHT22;61000;48.120;11.548;2022-11-15T08:22:56;5.30;99.90
72865;DHT22;61000;48.120;11.548;2022-11-15T08:25:41;5.60;99.90
72865;DHT22;61000;48.120;11.548;2022-11-15T08:28:27;5.70;99.90
72865;DHT22;61000;48.120;11.548;2022-11-15T08:31:14;5.70;99.90
72865;DHT22;61000;48.120;11.548;2022-11-15T08:34:00;5.80;99.90
72865;DHT22;61000;48.120;11.548;2022-11-15T08:36:46;5.80;99.90
72865;DHT22;61000;48.120;11.548;2022-11-15T08:39:33;5.90;99.90
72865;DHT22;61000;48.120;11.548;2022-11-15T08:42:18;6.00;99.90
72865;DHT22;61000;48.120;11.548;2022-11-15T08:45:04;6.10;99.90
72865;DHT22;61000;48.120;11.548;2022-11-15T09:21:06;7.80;99.90
72865;DHT22;61000;48.120;11.548;2022-11-15T09:23:52;7.90;99.90
72865;DHT22;61000;48.120;11.548;2022-11-15T09:26:37;8.10;99.90
72865;DHT22;61000;48.120;11.548;2022-11-15T09:29:24;8.20;99.90
72865;DHT22;61000;48.120;11.548;2022-11-15T09:32:10;8.50;99.90
72865;DHT22;61000;48.120;11.548;2022-11-15T09:34:55;8.70;99.90
72865;DHT22;61000;48.120;11.548;2022-11-15T09:37:40;8.80;99.90
72865;DHT22;61000;48.120;11.548;2022-11-15T09:40:26;8.90;99.90
72865;DHT22;61000;48.120;11.548;2022-11-15T09:43:28;9.10;99.90
72865;DHT22;61000;48.120;11.548;2022-11-15T09:46:21;9.30;99.90
72865;DHT22;61000;48.120;11.548;2022-11-15T09:49:08;9.50;99.90
72865;DHT22;61000;48.120;11.548;2022-11-15T09:52:11;9.60;99.90
72865;DHT22;61000;48.120;11.548;2022-11-15T09:54:39;9.80;99.90
72865;DHT22;61000;48.120;11.548;2022-11-15T09:57:12;9.80;99.90
72865;DHT22;61000;48.120;11.548;2022-11-15T10:00:02;9.90;99.90
72865;DHT22;61000;48.120;11.548;2022-11-15T10:02:51;10.00;99.90
72865;DHT22;61000;48.120;11.548;2022-11-15T10:05:23;10.10;99.90
72865;DHT22;61000;48.120;11.548;2022-11-15T10:07:56;10.20;99.90
72865;DHT22;61000;48.120;11.548;2022-11-15T10:10:29;10.40;99.90
72865;DHT22;61000;48.120;11.548;2022-11-15T10:12:57;10.40;99.90
72865;DHT22;61000;48.120;11.548;2022-11-15T10:15:24;10.40;99.90
72865;DHT22;61000;48.120;11.548;2022-11-15T10:18:12;10.40;99.90
72865;DHT22;61000;48.120;11.548;2022-11-15T10:20:47;10.40;99.90
72865;DHT22;61000;48.120;11.548;2022-11-15T10:23:16;10.40;99.90
72865;DHT22;61000;48.120;11.548;2022-11-15T10:25:44;10.50;99.90
72865;DHT22;61000;48.120;11.548;2022-11-15T10:28:15;10.50;99.90
72865;DHT22;61000;48.120;11.548;2022-11-15T10:30:44;10.70;99.90
72865;DHT22;61000;48.120;11.548;2022-11-15T10:33:25;10.70;99.90
72865;DHT22;61000;48.120;11.548;2022-11-15T10:36:17;10.80;99.90
72865;DHT22;61000;48.120;11.548;2022-11-15T10:38:56;10.80;99.90
72865;DHT22;61000;48.120;11.548;2022-11-15T10:41:35;11.00;99.90
72865;DHT22;61000;48.120;11.548;2022-11-15T10:44:21;11.10;99.90
72865;DHT22;61000;48.120;11.548;2022-11-15T10:47:03;11.10;99.90
72865;DHT22;61000;48.120;11.548;2022-11-15T10:49:33;11.10;99.90
72865;DHT22;61000;48.120;11.548;2022-11-15T10:52:04;11.30;99.90
72865;DHT22;61000;48.120;11.548;2022-11-15T10:54:36;11.40;99.90
72865;DHT22;61000;48.120;11.548;2022-11-15T10:57:06;11.60;99.90
72865;DHT22;61000;48.120;11.548;2022-11-15T10:59:36;11.70;99.90
72865;DHT22;61000;48.120;11.548;2022-11-15T11:02:30;11.70;99.90
72865;DHT22;61000;48.120;11.548;2022-11-15T11:04:59;11.80;99.90
72865;DHT22;61000;48.120;11.548;2022-11-15T11:07:27;11.90;99.90
72865;DHT22;61000;48.120;11.548;2022-11-15T11:10:00;11.90;99.90
72865;DHT22;61000;48.120;11.548;2022-11-15T11:12:28;12.00;99.90
72865;DHT22;61000;48.120;11.548;2022-11-15T11:14:58;12.10;99.90
72865;DHT22;61000;48.120;11.548;2022-11-15T11:17:32;12.20;99.90
72865;DHT22;61000;48.120;11.548;2022-11-15T11:20:07;12.30;99.90
72865;DHT22;61000;48.120;11.548;2022-11-15T11:22:41;12.40;99.90
72865;DHT22;61000;48.120;11.548;2022-11-15T11:25:20;12.40;99.90
72865;DHT22;61000;48.120;11.548;2022-11-15T11:27:58;12.40;99.90
72865;DHT22;61000;48.120;11.548;2022-11-15T11:30:40;12.50;99.90
72865;DHT22;61000;48.120;11.548;2022-11-15T11:33:13;12.50;99.90
72865;DHT22;61000;48.120;11.548;2022-11-15T11:35:50;12.60;99.90
72865;DHT22;61000;48.120;11.548;2022-11-15T11:38:36;12.80;99.90
72865;DHT22;61000;48.120;11.548;2022-11-15T11:41:12;12.70;99.90
72865;DHT22;61000;48.120;11.548;2022-11-15T11:43:48;12.80;99.90
72865;DHT22;61000;48.120;11.548;2022-11-15T11:46:33;12.80;99.90
72865;DHT22;61000;48.120;11.548;2022-11-15T11:49:08;12.80;99.90
72865;DHT22;61000;48.120;11.548;2022-11-15T11:51:39;12.90;99.90
72865;DHT22;61000;48.120;11.548;2022-11-15T11:54:13;13.00;99.90
72865;DHT22;61000;48.120;11.548;2022-11-15T11:56:44;12.90;99.90
72865;DHT22;61000;48.120;11.548;2022-11-15T11:59:17;13.00;99.90
72865;DHT22;61000;48.120;11.548;2022-11-15T12:01:45;13.10;99.90
72865;DHT22;61000;48.120;11.548;2022-11-15T12:04:16;13.10;99.90
72865;DHT22;61000;48.120;11.548;2022-11-15T12:29:23;14.00;99.90
72865;DHT22;61000;48.120;11.548;2022-11-15T12:31:54;14.20;98.80
72865;DHT22;61000;48.120;11.548;2022-11-15T12:34:43;14.10;97.90
72865;DHT22;61000;48.120;11.548;2022-11-15T12:41:11;14.00;97.40
72865;DHT22;61000;48.120;11.548;2022-11-15T12:43:40;14.20;96.70
72865;DHT22;61000;48.120;11.548;2022-11-15T12:46:18;14.30;96.30
72865;DHT22;61000;48.120;11.548;2022-11-15T12:48:49;14.30;96.50
72865;DHT22;61000;48.120;11.548;2022-11-15T12:51:19;14.30;96.80
72865;DHT22;61000;48.120;11.548;2022-11-15T12:53:46;14.40;96.70
72865;DHT22;61000;48.120;11.548;2022-11-15T12:56:22;14.30;96.50
72865;DHT22;61000;48.120;11.548;2022-11-15T12:58:52;14.40;96.50
72865;DHT22;61000;48.120;11.548;2022-11-15T13:01:57;14.50;96.80
72865;DHT22;61000;48.120;11.548;2022-11-15T13:04:29;14.50;96.70
72865;DHT22;61000;48.120;11.548;2022-11-15T13:06:59;14.50;96.90
72865;DHT22;61000;48.120;11.548;2022-11-15T13:09:55;14.40;96.60
72865;DHT22;61000;48.120;11.548;2022-11-15T13:12:52;14.40;96.80
72865;DHT22;61000;48.120;11.548;2022-11-15T13:15:52;14.40;96.50
72865;DHT22;61000;48.120;11.548;2022-11-15T13:18:36;14.50;96.70
72865;DHT22;61000;48.120;11.548;2022-11-15T13:21:16;14.40;96.60
72865;DHT22;61000;48.120;11.548;2022-11-15T13:23:58;14.40;96.60
72865;DHT22;61000;48.120;11.548;2022-11-15T13:26:25;14.40;96.90
72865;DHT22;61000;48.120;11.548;2022-11-15T13:28:53;14.40;96.80
72865;DHT22;61000;48.120;11.548;2022-11-15T13:31:27;14.30;96.60
72865;DHT22;61000;48.120;11.548;2022-11-15T13:33:57;14.20;96.90
72865;DHT22;61000;48.120;11.548;2022-11-15T13:36:27;14.20;96.70
72865;DHT22;61000;48.120;11.548;2022-11-15T13:38:57;14.10;96.70
72865;DHT22;61000;48.120;11.548;2022-11-15T13:41:26;14.20;96.70
72865;DHT22;61000;48.120;11.548;2022-11-15T13:43:55;14.20;96.60
72865;DHT22;61000;48.120;11.548;2022-11-15T13:46:24;14.10;96.70
72865;DHT22;61000;48.120;11.548;2022-11-15T13:48:54;14.10;97.00
72865;DHT22;61000;48.120;11.548;2022-11-15T13:51:25;14.10;96.90
72865;DHT22;61000;48.120;11.548;2022-11-15T13:53:56;14.10;97.00
72865;DHT22;61000;48.120;11.548;2022-11-15T13:56:25;14.10;97.10
72865;DHT22;61000;48.120;11.548;2022-11-15T13:58:54;14.00;97.60
72865;DHT22;61000;48.120;11.548;2022-11-15T14:01:21;13.90;98.80
72865;DHT22;61000;48.120;11.548;2022-11-15T14:03:53;13.70;99.90
72865;DHT22;61000;48.120;11.548;2022-11-15T14:06:22;13.70;99.90
72865;DHT22;61000;48.120;11.548;2022-11-15T14:09:28;13.50;99.90
72865;DHT22;61000;48.120;11.548;2022-11-15T14:11:52;13.40;99.90
72865;DHT22;61000;48.120;11.548;2022-11-15T14:14:23;13.30;99.90
72865;DHT22;61000;48.120;11.548;2022-11-15T14:16:52;13.20;99.90
72865;DHT22;61000;48.120;11.548;2022-11-15T14:19:39;13.20;99.60
72865;DHT22;61000;48.120;11.548;2022-11-15T14:22:15;13.20;98.30
72865;DHT22;61000;48.120;11.548;2022-11-15T14:24:44;13.10;97.90
72865;DHT22;61000;48.120;11.548;2022-11-15T14:27:22;13.10;97.70
72865;DHT22;61000;48.120;11.548;2022-11-15T14:29:51;13.10;97.00
72865;DHT22;61000;48.120;11.548;2022-11-15T14:32:21;13.10;96.60
72865;DHT22;61000;48.120;11.548;2022-11-15T14:34:49;13.00;96.90
72865;DHT22;61000;48.120;11.548;2022-11-15T14:37:23;13.00;97.10
72865;DHT22;61000;48.120;11.548;2022-11-15T14:39:50;12.90;97.20
72865;DHT22;61000;48.120;11.548;2022-11-15T14:42:17;12.90;97.30
72865;DHT22;61000;48.120;11.548;2022-11-15T14:44:45;12.80;96.90
72865;DHT22;61000;48.120;11.548;2022-11-15T14:47:13;12.80;97.00
72865;DHT22;61000;48.120;11.548;2022-11-15T14:49:40;12.70;97.00
72865;DHT22;61000;48.120;11.548;2022-11-15T14:52:34;12.60;97.60
72865;DHT22;61000;48.120;11.548;2022-11-15T14:55:03;12.30;97.30
72865;DHT22;61000;48.120;11.548;2022-11-15T14:57:30;12.50;97.20
72865;DHT22;61000;48.120;11.548;2022-11-15T14:59:57;12.50;97.30
72865;DHT22;61000;48.120;11.548;2022-11-15T15:02:40;12.40;97.80
72865;DHT22;61000;48.120;11.548;2022-11-15T15:05:15;12.30;98.50
72865;DHT22;61000;48.120;11.548;2022-11-15T15:07:43;12.20;98.40
72865;DHT22;61000;48.120;11.548;2022-11-15T15:10:10;12.10;99.10
72865;DHT22;61000;48.120;11.548;2022-11-15T15:12:37;12.10;99.50
72865;DHT22;61000;48.120;11.548;2022-11-15T15:15:05;12.00;99.90
72865;DHT22;61000;48.120;11.548;2022-11-15T15:17:33;11.90;99.40
72865;DHT22;61000;48.120;11.548;2022-11-15T15:20:01;11.90;99.90
72865;DHT22;61000;48.120;11.548;2022-11-15T15:22:28;11.90;99.90
72865;DHT22;61000;48.120;11.548;2022-11-15T15:24:55;12.00;99.90
72865;DHT22;61000;48.120;11.548;2022-11-15T15:27:22;12.00;99.90
72865;DHT22;61000;48.120;11.548;2022-11-15T15:29:49;12.00;99.90
72865;DHT22;61000;48.120;11.548;2022-11-15T15:32:16;11.90;99.90
72865;DHT22;61000;48.120;11.548;2022-11-15T15:34:43;11.90;99.90
72865;DHT22;61000;48.120;11.548;2022-11-15T15:37:21;11.80;99.90
72865;DHT22;61000;48.120;11.548;2022-11-15T15:39:49;11.80;99.90
72865;DHT22;61000;48.120;11.548;2022-11-15T15:42:16;11.80;99.90
72865;DHT22;61000;48.120;11.548;2022-11-15T15:44:43;11.70;99.90
